Aérodrome :
LOGIN :

S'inscrire | Disclaimer

   EN    FR    IT 

 










Légende :    VFR   VFR Marginal   IFR   IFR Intensif   IFR Très Intensif
Visi : 
Plafond : 
>= 8 km
>= 3000ft
5 à 8 km
1000 à 3000 ft
1500m à 5 km
500 à 1000 ft
800 à 1500m
200 à 500 ft
< 800m
< 200 ft
Symboles :   Orages  Brouillard  Fortes neiges  Fortes précipitations  Vent > 20 kt
SIGMETs :   Divers  Orages  Givrage  Turbulence  Onde Orograph.  Cendres Volcan.






- Altitude de l'aérodrome : 17 ft
- Code IATA : GRQ


EHGG - Groningen Eelde

DERNIER METAR :
  • 291955Z AUTO 23018KT 6000 BKN008 OVC009 05/03 Q1016 BECMG 9999 BKN014

METARs EXPIRÉS :
  • 291925Z AUTO 22015KT 190V250 7000 SCT008 BKN009 OVC011 05/03 Q1016 BECMG 9999 BKN014
  • 291855Z AUTO 22016KT 7000 FEW008 BKN009 OVC011 05/03 Q1016 BECMG 9999 BKN014
  • 291825Z AUTO 22016KT 6000 SCT008 BKN009 BKN011 05/03 Q1017 BECMG 9999 BKN014
  • 291755Z AUTO 22016KT 190V250 5000 SCT008 BKN009 BKN011 05/03 Q1017 BECMG 9999 BKN014
  • 291725Z AUTO 22015KT 4200 BR BKN006 OVC008 04/03 Q1018 BECMG 9999 BKN014

TAF TAF EHGG
Valide du 29 à 18h jusqu'au 31 à 00h UTC


291720Z 2918/3024 21014KT 9999 BKN014
PROB40 2918/2921 4000 BKN007
BECMG 3000/3001 24017KT 6000 RADZ BKN007
BECMG 3003/3005 27017KT 9999 NSW SCT025
BECMG 3007/3009 30024KT
TEMPO 3010/3013 31024G35KT 6000 SHRA SCT025CB BKN030
BECMG 3013/3015 30014KT
BECMG 3020/3023 27010KT



MET'MAP, la Météo Aéronautique d'un coup d'oeil ! - Copyright ORBIFLY Décembre 2007 - Disclaimer

ORBIFLY MET'MAP TEAM :

Programmation & Développement : Alexandra Zaïnal
Sur une idée originale de : Baudouin d'Aumeries
Soutien technique & logistique : Manuel Goepfert
Assistance : Marc-Olivier Méhu




SOURCES & CREDITS :

   NOAA